createdAt,value
2018-05-31T00:00:20.936Z,28.03
2018-05-31T00:00:53.050Z,27.99
2018-05-31T00:01:25.080Z,27.99
2018-05-31T00:01:57.115Z,28.01
2018-05-31T00:02:29.185Z,28.02
2018-05-31T00:03:01.227Z,27.99
2018-05-31T00:03:33.259Z,28.03
2018-05-31T00:04:05.261Z,28.02
2018-05-31T00:04:37.316Z,28.01
2018-05-31T00:05:09.389Z,27.99
2018-05-31T00:05:41.450Z,28.05
2018-05-31T00:06:13.487Z,28.03
2018-05-31T00:06:45.543Z,27.96
2018-05-31T00:07:17.585Z,28.02
2018-05-31T00:07:49.743Z,28.03
2018-05-31T00:08:21.801Z,28.01
2018-05-31T00:08:53.861Z,27.94
2018-05-31T00:09:26.942Z,27.98
2018-05-31T00:09:59.059Z,27.93
2018-05-31T00:10:31.682Z,27.99
2018-05-31T00:11:03.732Z,27.99
2018-05-31T00:11:35.786Z,27.89
2018-05-31T00:12:07.860Z,27.94
2018-05-31T00:12:39.893Z,27.96
2018-05-31T00:13:11.937Z,27.96
2018-05-31T00:13:43.969Z,28.01
2018-05-31T00:14:16.032Z,27.86
2018-05-31T00:14:48.150Z,27.96
2018-05-31T00:15:20.173Z,27.93
2018-05-31T00:15:52.207Z,27.83
2018-05-31T00:16:24.268Z,27.91
2018-05-31T00:16:56.327Z,28.03
2018-05-31T00:17:28.392Z,27.9
2018-05-31T00:18:00.451Z,27.9
2018-05-31T00:18:32.505Z,27.91
2018-05-31T00:19:04.572Z,27.94
2018-05-31T00:19:36.621Z,27.89
2018-05-31T00:20:08.667Z,27.91
2018-05-31T00:20:41.008Z,27.93
2018-05-31T00:21:13.062Z,27.93
2018-05-31T00:21:45.547Z,27.87
2018-05-31T00:22:17.599Z,27.84
2018-05-31T00:22:49.651Z,27.87
2018-05-31T00:23:21.776Z,27.9
2018-05-31T00:23:53.840Z,27.87
2018-05-31T00:24:25.898Z,27.91
2018-05-31T00:24:58.044Z,27.9
2018-05-31T00:25:30.084Z,27.9
2018-05-31T00:26:02.159Z,27.86
2018-05-31T00:26:34.204Z,27.84
2018-05-31T00:27:06.289Z,27.84
2018-05-31T00:27:38.344Z,27.83
2018-05-31T00:28:10.383Z,27.79
2018-05-31T00:28:42.444Z,27.8
2018-05-31T00:29:14.540Z,27.83
2018-05-31T00:29:46.589Z,27.81
2018-05-31T00:30:18.613Z,27.8
2018-05-31T00:30:50.641Z,27.75
2018-05-31T00:31:22.693Z,27.86
2018-05-31T00:31:55.114Z,27.81
2018-05-31T00:32:27.184Z,27.8
2018-05-31T00:33:00.696Z,27.72
2018-05-31T00:33:32.752Z,27.83
2018-05-31T00:34:04.786Z,27.8
2018-05-31T00:34:36.905Z,27.86
2018-05-31T00:35:08.951Z,27.79
2018-05-31T00:35:40.995Z,27.81
2018-05-31T00:36:13.018Z,27.75
2018-05-31T00:36:45.062Z,27.75
2018-05-31T00:37:17.118Z,27.75
2018-05-31T00:37:49.195Z,27.74
2018-05-31T00:38:21.262Z,27.71
2018-05-31T00:38:53.320Z,27.74
2018-05-31T00:39:25.361Z,27.69
2018-05-31T00:39:57.424Z,27.74
2018-05-31T00:40:29.493Z,27.69
2018-05-31T00:41:01.517Z,27.74
2018-05-31T00:41:33.578Z,27.69
2018-05-31T00:42:05.729Z,27.75
2018-05-31T00:42:37.792Z,27.69
2018-05-31T00:43:09.842Z,27.69
2018-05-31T00:43:41.869Z,27.68
2018-05-31T00:44:14.223Z,27.75
2018-05-31T00:44:46.250Z,27.66
2018-05-31T00:45:18.300Z,27.69
2018-05-31T00:45:50.372Z,27.66
2018-05-31T00:46:22.403Z,27.65
2018-05-31T00:46:54.468Z,27.72
2018-05-31T00:47:26.533Z,27.62
2018-05-31T00:47:58.581Z,27.69
2018-05-31T00:48:30.607Z,27.66
2018-05-31T00:49:02.657Z,27.69
2018-05-31T00:49:34.710Z,27.69
2018-05-31T00:50:06.784Z,27.61
2018-05-31T00:50:38.820Z,27.64
2018-05-31T00:51:10.849Z,27.59
2018-05-31T00:51:42.886Z,27.53
2018-05-31T00:52:15.503Z,27.68
2018-05-31T00:52:47.556Z,27.57
2018-05-31T00:53:19.590Z,27.61
2018-05-31T00:53:51.762Z,27.61
2018-05-31T00:54:23.802Z,27.59
2018-05-31T00:54:55.843Z,27.59
2018-05-31T00:55:28.476Z,27.59
2018-05-31T00:56:00.533Z,27.71
2018-05-31T00:56:33.454Z,27.61
2018-05-31T00:57:05.538Z,27.62
2018-05-31T00:57:37.595Z,27.68
2018-05-31T00:58:09.640Z,27.65
2018-05-31T00:58:41.687Z,27.57
2018-05-31T00:59:13.735Z,27.65
2018-05-31T00:59:45.789Z,27.59
2018-05-31T01:00:17.838Z,27.55
2018-05-31T01:00:49.881Z,27.59
2018-05-31T01:01:21.923Z,27.62
2018-05-31T01:01:53.989Z,27.59
2018-05-31T01:02:26.125Z,27.64
2018-05-31T01:02:58.168Z,27.59
2018-05-31T01:03:30.215Z,27.59
2018-05-31T01:04:02.260Z,27.59
2018-05-31T01:04:34.306Z,27.48
2018-05-31T01:05:06.367Z,27.59
2018-05-31T01:05:38.410Z,27.51
2018-05-31T01:06:10.465Z,27.53
2018-05-31T01:06:42.895Z,27.55
2018-05-31T01:07:14.991Z,27.61
2018-05-31T01:07:48.066Z,27.48
2018-05-31T01:08:20.191Z,27.51
2018-05-31T01:08:52.840Z,27.48
2018-05-31T01:09:24.972Z,27.49
2018-05-31T01:09:57.021Z,27.49
2018-05-31T01:10:29.075Z,27.52
2018-05-31T01:11:01.109Z,27.49
2018-05-31T01:11:33.218Z,27.48
2018-05-31T01:12:05.264Z,27.51
2018-05-31T01:12:37.288Z,27.51
2018-05-31T01:13:09.365Z,27.49
2018-05-31T01:13:41.428Z,27.51
2018-05-31T01:14:13.481Z,27.49
2018-05-31T01:14:45.623Z,27.48
2018-05-31T01:15:17.673Z,27.52
2018-05-31T01:15:49.754Z,27.52
2018-05-31T01:16:21.782Z,27.51
2018-05-31T01:16:53.839Z,27.53
2018-05-31T01:17:25.893Z,27.51
2018-05-31T01:17:57.946Z,27.52
2018-05-31T01:18:30.000Z,27.49
2018-05-31T01:19:02.555Z,27.51
2018-05-31T01:19:34.615Z,27.46
2018-05-31T01:20:07.109Z,27.46
2018-05-31T01:20:39.172Z,27.43
2018-05-31T01:21:11.231Z,27.45
2018-05-31T01:21:43.281Z,27.51
2018-05-31T01:22:15.322Z,27.41
2018-05-31T01:22:47.407Z,27.38
2018-05-31T01:23:20.295Z,27.52
2018-05-31T01:23:52.370Z,27.45
2018-05-31T01:24:24.422Z,27.45
2018-05-31T01:24:56.518Z,27.38
2018-05-31T01:25:28.635Z,27.46
2018-05-31T01:26:00.710Z,27.41
2018-05-31T01:26:32.812Z,27.46
2018-05-31T01:27:04.866Z,27.43
2018-05-31T01:27:36.933Z,27.43
2018-05-31T01:28:09.086Z,27.43
2018-05-31T01:28:41.137Z,27.43
2018-05-31T01:29:13.191Z,27.42
2018-05-31T01:29:45.239Z,27.37
2018-05-31T01:30:17.386Z,27.38
2018-05-31T01:30:49.447Z,27.48
2018-05-31T01:31:21.881Z,27.42
2018-05-31T01:31:53.928Z,27.42
2018-05-31T01:32:25.980Z,27.42
2018-05-31T01:32:58.050Z,27.42
2018-05-31T01:33:30.101Z,27.43
2018-05-31T01:34:02.227Z,27.42
2018-05-31T01:34:34.369Z,27.33
2018-05-31T01:35:06.559Z,27.34
2018-05-31T01:35:38.731Z,27.42
2018-05-31T01:36:10.803Z,27.34
2018-05-31T01:36:42.858Z,27.42
2018-05-31T01:37:14.902Z,27.34
2018-05-31T01:37:46.961Z,27.43
2018-05-31T01:38:19.024Z,27.28
2018-05-31T01:38:51.050Z,27.34
2018-05-31T01:39:23.065Z,27.3
2018-05-31T01:39:55.121Z,27.33
2018-05-31T01:40:27.181Z,27.33
2018-05-31T01:40:59.225Z,27.28
2018-05-31T01:41:31.532Z,27.33
2018-05-31T01:42:03.600Z,27.34
2018-05-31T01:42:36.602Z,27.33
2018-05-31T01:43:08.669Z,27.3
2018-05-31T01:43:41.140Z,27.31
2018-05-31T01:44:13.193Z,27.3
2018-05-31T01:44:45.228Z,27.3
2018-05-31T01:45:17.284Z,27.3
2018-05-31T01:45:49.357Z,27.28
2018-05-31T01:46:21.413Z,27.27
2018-05-31T01:46:53.447Z,27.34
2018-05-31T01:47:25.507Z,27.28
2018-05-31T01:47:58.212Z,27.31
2018-05-31T01:48:30.276Z,27.28
2018-05-31T01:49:02.334Z,27.3
2018-05-31T01:49:34.384Z,27.3
2018-05-31T01:50:06.413Z,27.23
2018-05-31T01:50:38.445Z,27.3
2018-05-31T01:51:10.494Z,27.24
2018-05-31T01:51:42.552Z,27.26
2018-05-31T01:52:14.584Z,27.28
2018-05-31T01:52:46.627Z,27.21
2018-05-31T01:53:18.679Z,27.23
2018-05-31T01:53:51.853Z,27.16
2018-05-31T01:54:23.917Z,27.21
2018-05-31T01:54:56.487Z,27.19
2018-05-31T01:55:28.518Z,27.24
2018-05-31T01:56:02.241Z,27.19
2018-05-31T01:56:34.304Z,27.15
2018-05-31T01:57:06.345Z,27.16
2018-05-31T01:57:38.409Z,27.27
2018-05-31T01:58:10.454Z,27.15
2018-05-31T01:58:42.469Z,27.24
2018-05-31T01:59:14.514Z,27.21
2018-05-31T01:59:46.587Z,27.23
2018-05-31T02:00:18.634Z,27.26
2018-05-31T02:00:50.665Z,27.13
2018-05-31T02:01:22.712Z,27.24
2018-05-31T02:01:54.772Z,27.26
2018-05-31T02:02:26.843Z,27.21
2018-05-31T02:02:58.876Z,27.19
2018-05-31T02:03:30.934Z,27.16
2018-05-31T02:04:02.987Z,27.18
2018-05-31T02:04:35.037Z,27.18
2018-05-31T02:05:07.107Z,27.24
2018-05-31T02:05:39.173Z,27.13
2018-05-31T02:06:11.900Z,27.16
2018-05-31T02:06:43.942Z,27.19
2018-05-31T02:07:16.560Z,27.15
2018-05-31T02:07:48.586Z,27.11
2018-05-31T02:08:21.079Z,27.15
2018-05-31T02:08:53.190Z,27.13
2018-05-31T02:09:25.196Z,27.08
2018-05-31T02:09:57.254Z,27.12
2018-05-31T02:10:29.291Z,27.11
2018-05-31T02:11:01.323Z,27.11
2018-05-31T02:11:33.389Z,27.06
2018-05-31T02:12:05.437Z,27.12
2018-05-31T02:12:37.522Z,27.09
2018-05-31T02:13:09.584Z,27.13
2018-05-31T02:13:41.658Z,27.11
2018-05-31T02:14:13.689Z,27.09
2018-05-31T02:14:45.730Z,27.04
2018-05-31T02:15:17.780Z,27.01
2018-05-31T02:15:49.827Z,26.99
2018-05-31T02:16:21.862Z,27.04
2018-05-31T02:16:53.922Z,27.01
2018-05-31T02:17:26.989Z,27.04
2018-05-31T02:17:59.031Z,27
2018-05-31T02:18:31.887Z,26.97
2018-05-31T02:19:03.932Z,27
2018-05-31T02:19:37.154Z,27.04
2018-05-31T02:20:09.296Z,27.04
2018-05-31T02:20:41.439Z,27.06
2018-05-31T02:21:13.503Z,27
2018-05-31T02:21:45.557Z,27.04
2018-05-31T02:22:17.604Z,27
2018-05-31T02:22:49.651Z,27.04
2018-05-31T02:23:21.838Z,27.06
2018-05-31T02:23:54.730Z,26.99
2018-05-31T02:24:26.769Z,26.97
2018-05-31T02:24:58.877Z,27.04
2018-05-31T02:25:30.932Z,26.97
2018-05-31T02:26:02.990Z,26.97
2018-05-31T02:26:35.026Z,27.01
2018-05-31T02:27:07.110Z,26.96
2018-05-31T02:27:39.171Z,26.9
2018-05-31T02:28:11.214Z,27
2018-05-31T02:28:43.263Z,26.94
2018-05-31T02:29:15.852Z,27
2018-05-31T02:29:48.578Z,26.87
2018-05-31T02:30:20.621Z,26.9
2018-05-31T02:30:53.544Z,26.84
2018-05-31T02:31:25.594Z,26.91
2018-05-31T02:31:58.816Z,26.94
2018-05-31T02:32:30.869Z,26.94
2018-05-31T02:33:03.579Z,26.91
2018-05-31T02:33:35.671Z,26.91
2018-05-31T02:34:07.702Z,26.97
2018-05-31T02:34:39.757Z,26.91
2018-05-31T02:35:11.823Z,26.91
2018-05-31T02:35:43.829Z,26.99
2018-05-31T02:36:15.875Z,26.87
2018-05-31T02:36:47.922Z,26.91
2018-05-31T02:37:19.965Z,26.9
2018-05-31T02:37:52.015Z,26.89
2018-05-31T02:38:24.061Z,26.91
2018-05-31T02:38:56.193Z,26.96
2018-05-31T02:39:28.256Z,26.9
2018-05-31T02:40:00.313Z,26.89
2018-05-31T02:40:32.365Z,26.87
2018-05-31T02:41:04.412Z,26.84
2018-05-31T02:41:36.534Z,26.82
2018-05-31T02:42:09.021Z,26.87
2018-05-31T02:42:41.067Z,26.91
2018-05-31T02:43:13.743Z,26.9
2018-05-31T02:43:45.777Z,26.91
2018-05-31T02:44:17.798Z,26.9
2018-05-31T02:44:49.856Z,26.86
2018-05-31T02:45:21.906Z,26.89
2018-05-31T02:45:53.985Z,26.89
2018-05-31T02:46:26.169Z,26.84
2018-05-31T02:46:58.324Z,26.86
2018-05-31T02:47:30.375Z,26.82
2018-05-31T02:48:02.415Z,26.89
2018-05-31T02:48:34.505Z,26.87
2018-05-31T02:49:06.556Z,26.86
2018-05-31T02:49:38.611Z,26.87
2018-05-31T02:50:10.663Z,26.84
2018-05-31T02:50:42.737Z,26.74
2018-05-31T02:51:14.789Z,26.84
2018-05-31T02:51:46.843Z,26.87
2018-05-31T02:52:18.870Z,26.82
2018-05-31T02:52:50.955Z,26.78
2018-05-31T02:53:23.379Z,26.78
2018-05-31T02:53:55.422Z,26.75
2018-05-31T02:54:27.561Z,26.76
2018-05-31T02:54:59.754Z,26.87
2018-05-31T02:55:31.799Z,26.76
2018-05-31T02:56:03.850Z,26.79
2018-05-31T02:56:35.920Z,26.79
2018-05-31T02:57:07.978Z,26.81
2018-05-31T02:57:40.185Z,26.78
2018-05-31T02:58:12.290Z,26.79
2018-05-31T02:58:44.375Z,26.81
2018-05-31T02:59:16.412Z,26.86
2018-05-31T02:59:48.468Z,26.82
2018-05-31T03:00:20.493Z,26.75
2018-05-31T03:00:52.627Z,26.78
2018-05-31T03:01:24.679Z,26.76
2018-05-31T03:01:56.727Z,26.74
2018-05-31T03:02:28.792Z,26.81
2018-05-31T03:03:00.843Z,26.81
2018-05-31T03:03:32.874Z,26.81
2018-05-31T03:04:04.944Z,26.74
2018-05-31T03:04:37.396Z,26.72
2018-05-31T03:05:09.420Z,26.75
2018-05-31T03:05:42.683Z,26.72
2018-05-31T03:06:14.714Z,26.72
2018-05-31T03:06:46.761Z,26.75
2018-05-31T03:07:19.585Z,26.71
2018-05-31T03:07:51.697Z,26.74
2018-05-31T03:08:23.744Z,26.67
2018-05-31T03:08:55.818Z,26.78
2018-05-31T03:09:27.870Z,26.71
2018-05-31T03:09:59.977Z,26.59
2018-05-31T03:10:32.102Z,26.64
2018-05-31T03:11:04.151Z,26.76
2018-05-31T03:11:36.332Z,26.71
2018-05-31T03:12:08.386Z,26.61
2018-05-31T03:12:40.418Z,26.68
2018-05-31T03:13:12.495Z,26.79
2018-05-31T03:13:44.548Z,26.64
2018-05-31T03:14:16.596Z,26.69
2018-05-31T03:14:48.644Z,26.69
2018-05-31T03:15:20.702Z,26.63
2018-05-31T03:15:53.174Z,26.64
2018-05-31T03:16:25.259Z,26.69
2018-05-31T03:16:57.857Z,26.59
2018-05-31T03:17:30.033Z,26.68
2018-05-31T03:18:02.119Z,26.67
2018-05-31T03:18:34.153Z,26.68
2018-05-31T03:19:06.220Z,26.68
2018-05-31T03:19:38.238Z,26.63
2018-05-31T03:20:10.275Z,26.64
2018-05-31T03:20:42.305Z,26.68
2018-05-31T03:21:14.357Z,26.68
2018-05-31T03:21:46.498Z,26.64
2018-05-31T03:22:19.187Z,26.59
2018-05-31T03:22:51.222Z,26.61
2018-05-31T03:23:23.297Z,26.67
2018-05-31T03:23:55.441Z,26.57
2018-05-31T03:24:27.493Z,26.63
2018-05-31T03:24:59.540Z,26.56
2018-05-31T03:25:31.597Z,26.61
2018-05-31T03:26:03.661Z,26.6
2018-05-31T03:26:35.756Z,26.63
2018-05-31T03:27:08.785Z,26.6
2018-05-31T03:27:40.960Z,26.67
2018-05-31T03:28:13.863Z,26.61
2018-05-31T03:28:46.381Z,26.6
2018-05-31T03:29:18.796Z,26.6
2018-05-31T03:29:50.849Z,26.6
2018-05-31T03:30:22.912Z,26.57
2018-05-31T03:30:54.955Z,26.59
2018-05-31T03:31:27.002Z,26.61
2018-05-31T03:31:59.177Z,26.6
2018-05-31T03:32:31.340Z,26.59
2018-05-31T03:33:03.417Z,26.57
2018-05-31T03:33:35.461Z,26.59
2018-05-31T03:34:07.521Z,26.6
2018-05-31T03:34:39.576Z,26.59
2018-05-31T03:35:11.650Z,26.57
2018-05-31T03:35:43.751Z,26.59
2018-05-31T03:36:15.801Z,26.59
2018-05-31T03:36:47.845Z,26.6
2018-05-31T03:37:19.892Z,26.59
2018-05-31T03:37:51.939Z,26.59
2018-05-31T03:38:24.477Z,26.56
2018-05-31T03:38:56.518Z,26.57
2018-05-31T03:39:29.673Z,26.63
2018-05-31T03:40:01.714Z,26.6
2018-05-31T03:40:33.805Z,26.54
2018-05-31T03:41:05.847Z,26.54
2018-05-31T03:41:37.897Z,26.57
2018-05-31T03:42:09.961Z,26.61
2018-05-31T03:42:42.041Z,26.57
2018-05-31T03:43:14.108Z,26.54
2018-05-31T03:43:46.163Z,26.64
2018-05-31T03:44:18.213Z,26.57
2018-05-31T03:44:50.239Z,26.57
2018-05-31T03:45:22.291Z,26.61
2018-05-31T03:45:54.389Z,26.59
2018-05-31T03:46:26.454Z,26.59
2018-05-31T03:46:58.615Z,26.61
2018-05-31T03:47:30.712Z,26.59
2018-05-31T03:48:02.852Z,26.56
2018-05-31T03:48:34.913Z,26.59
2018-05-31T03:49:07.030Z,26.57
2018-05-31T03:49:39.384Z,26.63
2018-05-31T03:50:11.512Z,26.57
2018-05-31T03:50:43.678Z,26.6
2018-05-31T03:51:15.725Z,26.54
2018-05-31T03:51:48.162Z,26.54
2018-05-31T03:52:20.194Z,26.56
2018-05-31T03:52:52.253Z,26.61
2018-05-31T03:53:24.329Z,26.57
2018-05-31T03:53:56.371Z,26.59
2018-05-31T03:54:28.368Z,26.6
2018-05-31T03:55:00.450Z,26.59
2018-05-31T03:55:32.515Z,26.6
2018-05-31T03:56:04.582Z,26.6
2018-05-31T03:56:36.632Z,26.6
2018-05-31T03:57:08.709Z,26.59
2018-05-31T03:57:40.758Z,26.59
2018-05-31T03:58:12.826Z,26.61
2018-05-31T03:58:44.887Z,26.6
2018-05-31T03:59:16.943Z,26.59
2018-05-31T03:59:49.031Z,26.56
2018-05-31T04:00:21.050Z,26.52
2018-05-31T04:00:54.259Z,26.59
2018-05-31T04:01:26.326Z,26.63
2018-05-31T04:01:59.022Z,26.54
2018-05-31T04:02:31.069Z,26.54
2018-05-31T04:03:03.114Z,26.61
2018-05-31T04:03:35.160Z,26.6
2018-05-31T04:04:07.279Z,26.56
2018-05-31T04:04:39.312Z,26.59
2018-05-31T04:05:11.314Z,26.61
2018-05-31T04:05:43.363Z,26.54
2018-05-31T04:06:15.405Z,26.57
2018-05-31T04:06:47.443Z,26.56
2018-05-31T04:07:19.506Z,26.59
2018-05-31T04:07:51.558Z,26.64
2018-05-31T04:08:23.624Z,26.6
2018-05-31T04:08:55.676Z,26.54
2018-05-31T04:09:27.734Z,26.59
2018-05-31T04:09:59.800Z,26.61
2018-05-31T04:10:31.819Z,26.6
2018-05-31T04:11:03.888Z,26.59
2018-05-31T04:11:35.955Z,26.59
2018-05-31T04:12:08.926Z,26.54
2018-05-31T04:12:41.477Z,26.59
2018-05-31T04:13:14.660Z,26.56
2018-05-31T04:13:46.714Z,26.6
2018-05-31T04:14:18.773Z,26.63
2018-05-31T04:14:50.834Z,26.59
2018-05-31T04:15:22.927Z,26.61
2018-05-31T04:15:55.006Z,26.56
2018-05-31T04:16:27.063Z,26.54
2018-05-31T04:16:59.105Z,26.63
2018-05-31T04:17:31.195Z,26.6
2018-05-31T04:18:03.207Z,26.6
2018-05-31T04:18:35.265Z,26.57
2018-05-31T04:19:07.424Z,26.68
2018-05-31T04:19:39.489Z,26.67
2018-05-31T04:20:11.531Z,26.6
2018-05-31T04:20:43.569Z,26.6
2018-05-31T04:21:15.609Z,26.59
2018-05-31T04:21:47.671Z,26.61
2018-05-31T04:22:19.721Z,26.67
2018-05-31T04:22:51.773Z,26.6
2018-05-31T04:23:24.218Z,26.59
2018-05-31T04:23:56.260Z,26.61
2018-05-31T04:24:28.740Z,26.63
2018-05-31T04:25:00.806Z,26.61
2018-05-31T04:25:34.018Z,26.6
2018-05-31T04:26:06.097Z,26.64
2018-05-31T04:26:38.156Z,26.57
2018-05-31T04:27:10.193Z,26.63
2018-05-31T04:27:42.408Z,26.64
2018-05-31T04:28:14.461Z,26.68
2018-05-31T04:28:46.517Z,26.57
2018-05-31T04:29:18.573Z,26.72
2018-05-31T04:29:50.618Z,26.56
2018-05-31T04:30:22.682Z,26.64
2018-05-31T04:30:55.630Z,26.63
2018-05-31T04:31:27.709Z,26.56
2018-05-31T04:31:59.761Z,26.67
2018-05-31T04:32:31.811Z,26.67
2018-05-31T04:33:03.872Z,26.68
2018-05-31T04:33:36.010Z,26.64
2018-05-31T04:34:08.845Z,26.67
2018-05-31T04:34:40.867Z,26.67
2018-05-31T04:35:12.966Z,26.72
2018-05-31T04:35:45.427Z,26.59
2018-05-31T04:36:17.489Z,26.68
2018-05-31T04:36:50.475Z,26.72
2018-05-31T04:37:22.645Z,26.67
2018-05-31T04:37:54.711Z,26.61
2018-05-31T04:38:26.745Z,26.64
2018-05-31T04:38:58.791Z,26.69
2018-05-31T04:39:30.849Z,26.67
2018-05-31T04:40:03.033Z,26.76
2018-05-31T04:40:35.092Z,26.78
2018-05-31T04:41:07.121Z,26.63
2018-05-31T04:41:39.909Z,26.72
2018-05-31T04:42:11.960Z,26.67
2018-05-31T04:42:44.070Z,26.78
2018-05-31T04:43:16.227Z,26.74
2018-05-31T04:43:48.270Z,26.71
2018-05-31T04:44:20.346Z,26.76
2018-05-31T04:44:52.389Z,26.69
2018-05-31T04:45:24.463Z,26.75
2018-05-31T04:45:56.631Z,26.76
2018-05-31T04:46:28.815Z,26.76
2018-05-31T04:47:00.903Z,26.81
2018-05-31T04:47:32.955Z,26.74
2018-05-31T04:48:05.051Z,26.76
2018-05-31T04:48:37.091Z,26.76
2018-05-31T04:49:09.137Z,26.82
2018-05-31T04:49:41.180Z,26.81
2018-05-31T04:50:13.272Z,26.84
2018-05-31T04:50:45.321Z,26.84
2018-05-31T04:51:17.370Z,26.79
2018-05-31T04:51:49.398Z,26.75
2018-05-31T04:52:21.429Z,26.87
2018-05-31T04:52:53.549Z,26.87
2018-05-31T04:53:25.601Z,26.82
2018-05-31T04:53:57.673Z,26.78
2018-05-31T04:54:29.754Z,26.82
2018-05-31T04:55:01.772Z,26.82
2018-05-31T04:55:33.797Z,26.81
2018-05-31T04:56:05.844Z,26.82
2018-05-31T04:56:37.888Z,26.86
2018-05-31T04:57:10.519Z,26.82
2018-05-31T04:57:42.531Z,26.89
2018-05-31T04:58:15.062Z,26.79
2018-05-31T04:58:47.117Z,26.93
2018-05-31T04:59:20.531Z,26.86
2018-05-31T04:59:52.591Z,26.9
2018-05-31T05:00:24.657Z,26.82
2018-05-31T05:00:56.761Z,26.79
2018-05-31T05:01:28.808Z,26.89
2018-05-31T05:02:00.856Z,26.96
2018-05-31T05:02:32.878Z,26.97
2018-05-31T05:03:04.948Z,26.89
2018-05-31T05:03:36.985Z,26.84
2018-05-31T05:04:09.030Z,26.89
2018-05-31T05:04:41.070Z,26.99
2018-05-31T05:05:13.102Z,27.01
2018-05-31T05:05:45.159Z,26.91
2018-05-31T05:06:17.221Z,26.93
2018-05-31T05:06:49.266Z,26.9
2018-05-31T05:07:21.330Z,26.86
2018-05-31T05:07:53.401Z,27.01
2018-05-31T05:08:26.147Z,27
2018-05-31T05:08:58.184Z,27.01
2018-05-31T05:09:30.824Z,27
2018-05-31T05:10:02.877Z,27
2018-05-31T05:10:35.600Z,27
2018-05-31T05:11:07.635Z,27.04
2018-05-31T05:11:40.468Z,27
2018-05-31T05:12:12.488Z,27.04
2018-05-31T05:12:44.537Z,27.04
2018-05-31T05:13:16.574Z,26.97
2018-05-31T05:13:48.717Z,27
2018-05-31T05:14:20.787Z,27.01
2018-05-31T05:14:52.838Z,27.09
2018-05-31T05:15:24.915Z,27.12
2018-05-31T05:15:57.541Z,27.09
2018-05-31T05:16:29.597Z,27.19
2018-05-31T05:17:01.655Z,27.15
2018-05-31T05:17:33.731Z,27.19
2018-05-31T05:18:06.448Z,27.19
2018-05-31T05:18:38.490Z,27.21
2018-05-31T05:19:10.569Z,27.19
2018-05-31T05:19:42.746Z,27.24
2018-05-31T05:20:14.886Z,27.23
2018-05-31T05:20:48.046Z,27.24
2018-05-31T05:21:20.087Z,27.23
2018-05-31T05:21:52.137Z,27.19
2018-05-31T05:22:24.196Z,27.23
2018-05-31T05:22:56.323Z,27.24
2018-05-31T05:23:28.363Z,27.27
2018-05-31T05:24:00.413Z,27.27
2018-05-31T05:24:32.476Z,27.31
2018-05-31T05:25:04.677Z,27.33
2018-05-31T05:25:36.722Z,27.34
2018-05-31T05:26:08.782Z,27.31
2018-05-31T05:26:40.835Z,27.28
2018-05-31T05:27:13.034Z,27.28
2018-05-31T05:27:45.276Z,27.31
2018-05-31T05:28:17.425Z,27.28
2018-05-31T05:28:49.813Z,27.41
2018-05-31T05:29:21.854Z,27.45
2018-05-31T05:29:53.869Z,27.49
2018-05-31T05:30:25.918Z,27.41
2018-05-31T05:30:57.975Z,27.43
2018-05-31T05:31:30.003Z,27.45
2018-05-31T05:32:02.973Z,27.41
2018-05-31T05:32:35.112Z,27.43
2018-05-31T05:33:07.737Z,27.48
2018-05-31T05:33:40.014Z,27.46
2018-05-31T05:34:12.441Z,27.53
2018-05-31T05:34:44.489Z,27.49
2018-05-31T05:35:17.265Z,27.52
2018-05-31T05:35:49.322Z,27.49
2018-05-31T05:36:21.366Z,27.49
2018-05-31T05:36:53.412Z,27.48
2018-05-31T05:37:25.965Z,27.55
2018-05-31T05:37:58.480Z,27.55
2018-05-31T05:38:30.522Z,27.57
2018-05-31T05:39:02.545Z,27.66
2018-05-31T05:39:34.693Z,27.65
2018-05-31T05:40:07.809Z,27.57
2018-05-31T05:40:40.214Z,27.61
2018-05-31T05:41:12.837Z,27.57
2018-05-31T05:41:44.912Z,27.66
2018-05-31T05:42:17.072Z,27.68
2018-05-31T05:42:49.148Z,27.72
2018-05-31T05:43:21.251Z,27.72
